sensor_id;sensor_type;location;lat;lon;timestamp;temperature;humidity
1680;DHT22;838;51.794;12.258;2023-09-19T00:00:48;19.50;58.80
1680;DHT22;838;51.794;12.258;2023-09-19T00:03:15;19.40;59.60
1680;DHT22;838;51.794;12.258;2023-09-19T00:05:42;19.50;60.10
1680;DHT22;838;51.794;12.258;2023-09-19T00:08:10;19.50;60.20
1680;DHT22;838;51.794;12.258;2023-09-19T00:10:36;19.40;61.00
1680;DHT22;838;51.794;12.258;2023-09-19T00:13:03;19.40;59.80
1680;DHT22;838;51.794;12.258;2023-09-19T00:15:41;19.40;60.50
1680;DHT22;838;51.794;12.258;2023-09-19T00:18:07;19.40;60.50
1680;DHT22;838;51.794;12.258;2023-09-19T00:20:40;19.40;60.70
1680;DHT22;838;51.794;12.258;2023-09-19T00:23:07;19.50;59.50
1680;DHT22;838;51.794;12.258;2023-09-19T00:25:36;19.50;58.60
1680;DHT22;838;51.794;12.258;2023-09-19T00:28:04;19.40;59.90
1680;DHT22;838;51.794;12.258;2023-09-19T00:30:30;19.30;59.90
1680;DHT22;838;51.794;12.258;2023-09-19T00:32:56;19.40;59.90
1680;DHT22;838;51.794;12.258;2023-09-19T00:35:22;19.40;59.60
1680;DHT22;838;51.794;12.258;2023-09-19T00:37:52;19.30;58.80
1680;DHT22;838;51.794;12.258;2023-09-19T00:40:17;19.40;59.10
1680;DHT22;838;51.794;12.258;2023-09-19T00:42:44;19.40;58.30
1680;DHT22;838;51.794;12.258;2023-09-19T00:45:12;19.40;57.70
1680;DHT22;838;51.794;12.258;2023-09-19T00:47:44;19.40;57.40
1680;DHT22;838;51.794;12.258;2023-09-19T00:50:24;19.50;56.60
1680;DHT22;838;51.794;12.258;2023-09-19T00:52:54;19.60;55.70
1680;DHT22;838;51.794;12.258;2023-09-19T00:55:26;19.70;53.60
1680;DHT22;838;51.794;12.258;2023-09-19T00:57:56;19.70;53.50
1680;DHT22;838;51.794;12.258;2023-09-19T01:00:25;19.80;52.20
1680;DHT22;838;51.794;12.258;2023-09-19T01:02:51;19.70;53.00
1680;DHT22;838;51.794;12.258;2023-09-19T01:05:21;19.90;49.90
1680;DHT22;838;51.794;12.258;2023-09-19T01:07:52;20.00;48.20
1680;DHT22;838;51.794;12.258;2023-09-19T01:10:19;20.20;47.20
1680;DHT22;838;51.794;12.258;2023-09-19T01:21:51;20.10;45.50
1680;DHT22;838;51.794;12.258;2023-09-19T01:30:10;19.70;50.80
1680;DHT22;838;51.794;12.258;2023-09-19T01:32:39;19.60;52.10
1680;DHT22;838;51.794;12.258;2023-09-19T01:35:06;19.40;54.40
1680;DHT22;838;51.794;12.258;2023-09-19T01:37:37;19.40;54.30
1680;DHT22;838;51.794;12.258;2023-09-19T01:40:12;19.30;54.60
1680;DHT22;838;51.794;12.258;2023-09-19T01:42:49;19.40;54.40
1680;DHT22;838;51.794;12.258;2023-09-19T01:45:57;19.60;51.70
1680;DHT22;838;51.794;12.258;2023-09-19T01:52:09;19.90;47.30
1680;DHT22;838;51.794;12.258;2023-09-19T01:54:31;20.00;47.10
1680;DHT22;838;51.794;12.258;2023-09-19T01:57:16;19.90;46.70
1680;DHT22;838;51.794;12.258;2023-09-19T01:59:52;19.60;51.10
1680;DHT22;838;51.794;12.258;2023-09-19T02:02:21;19.50;52.00
1680;DHT22;838;51.794;12.258;2023-09-19T02:04:49;19.50;51.40
1680;DHT22;838;51.794;12.258;2023-09-19T02:07:16;19.30;53.60
1680;DHT22;838;51.794;12.258;2023-09-19T02:09:42;19.20;55.30
1680;DHT22;838;51.794;12.258;2023-09-19T02:12:11;19.00;56.90
1680;DHT22;838;51.794;12.258;2023-09-19T02:14:37;19.00;57.10
1680;DHT22;838;51.794;12.258;2023-09-19T02:17:04;19.00;57.90
1680;DHT22;838;51.794;12.258;2023-09-19T02:19:33;18.90;58.30
1680;DHT22;838;51.794;12.258;2023-09-19T02:21:59;18.90;59.50
1680;DHT22;838;51.794;12.258;2023-09-19T02:24:28;18.90;59.30
1680;DHT22;838;51.794;12.258;2023-09-19T02:26:54;18.90;59.90
1680;DHT22;838;51.794;12.258;2023-09-19T02:29:21;18.80;60.00
1680;DHT22;838;51.794;12.258;2023-09-19T02:31:47;18.80;59.40
1680;DHT22;838;51.794;12.258;2023-09-19T02:34:13;18.70;60.10
1680;DHT22;838;51.794;12.258;2023-09-19T02:36:39;18.70;61.20
1680;DHT22;838;51.794;12.258;2023-09-19T02:39:05;18.70;61.40
1680;DHT22;838;51.794;12.258;2023-09-19T02:41:31;18.70;61.50
1680;DHT22;838;51.794;12.258;2023-09-19T02:43:58;18.70;60.10
1680;DHT22;838;51.794;12.258;2023-09-19T02:46:24;18.70;60.70
1680;DHT22;838;51.794;12.258;2023-09-19T02:48:50;18.70;60.30
1680;DHT22;838;51.794;12.258;2023-09-19T02:51:16;18.70;61.00
1680;DHT22;838;51.794;12.258;2023-09-19T02:53:42;18.70;59.60
1680;DHT22;838;51.794;12.258;2023-09-19T02:56:08;18.70;59.80
1680;DHT22;838;51.794;12.258;2023-09-19T02:58:35;18.70;59.90
1680;DHT22;838;51.794;12.258;2023-09-19T03:01:11;18.70;58.90
1680;DHT22;838;51.794;12.258;2023-09-19T03:03:43;18.80;58.20
1680;DHT22;838;51.794;12.258;2023-09-19T03:06:11;18.90;58.20
1680;DHT22;838;51.794;12.258;2023-09-19T03:08:38;18.90;58.00
1680;DHT22;838;51.794;12.258;2023-09-19T03:11:06;18.90;57.20
1680;DHT22;838;51.794;12.258;2023-09-19T03:13:35;18.90;56.90
1680;DHT22;838;51.794;12.258;2023-09-19T03:16:02;18.90;56.70
1680;DHT22;838;51.794;12.258;2023-09-19T03:18:31;18.90;57.00
1680;DHT22;838;51.794;12.258;2023-09-19T03:20:57;18.90;56.00
1680;DHT22;838;51.794;12.258;2023-09-19T03:23:27;18.80;55.90
1680;DHT22;838;51.794;12.258;2023-09-19T03:25:54;18.90;55.50
1680;DHT22;838;51.794;12.258;2023-09-19T03:28:20;18.90;55.40
1680;DHT22;838;51.794;12.258;2023-09-19T03:31:01;19.00;54.60
1680;DHT22;838;51.794;12.258;2023-09-19T03:33:27;19.10;52.80
1680;DHT22;838;51.794;12.258;2023-09-19T03:35:54;19.10;51.20
1680;DHT22;838;51.794;12.258;2023-09-19T03:38:20;19.10;51.90
1680;DHT22;838;51.794;12.258;2023-09-19T03:40:47;19.20;49.90
1680;DHT22;838;51.794;12.258;2023-09-19T03:43:13;19.30;49.60
1680;DHT22;838;51.794;12.258;2023-09-19T03:45:45;19.50;46.70
1680;DHT22;838;51.794;12.258;2023-09-19T03:48:15;19.70;43.50
1680;DHT22;838;51.794;12.258;2023-09-19T03:50:41;19.80;42.30
1680;DHT22;838;51.794;12.258;2023-09-19T03:53:09;19.80;42.10
1680;DHT22;838;51.794;12.258;2023-09-19T03:55:39;19.70;41.50
1680;DHT22;838;51.794;12.258;2023-09-19T03:58:05;19.50;43.00
1680;DHT22;838;51.794;12.258;2023-09-19T04:00:31;19.40;44.20
1680;DHT22;838;51.794;12.258;2023-09-19T04:02:56;19.10;47.50
1680;DHT22;838;51.794;12.258;2023-09-19T04:05:23;18.90;49.30
1680;DHT22;838;51.794;12.258;2023-09-19T04:07:49;18.90;50.20
1680;DHT22;838;51.794;12.258;2023-09-19T04:10:16;18.80;50.60
1680;DHT22;838;51.794;12.258;2023-09-19T04:12:54;18.70;51.90
1680;DHT22;838;51.794;12.258;2023-09-19T04:15:20;18.70;52.10
1680;DHT22;838;51.794;12.258;2023-09-19T04:17:51;18.70;51.50
1680;DHT22;838;51.794;12.258;2023-09-19T04:20:18;18.60;52.80
1680;DHT22;838;51.794;12.258;2023-09-19T04:22:45;18.50;54.50
1680;DHT22;838;51.794;12.258;2023-09-19T04:25:12;18.50;54.60
1680;DHT22;838;51.794;12.258;2023-09-19T04:27:37;18.50;54.50
1680;DHT22;838;51.794;12.258;2023-09-19T04:30:05;18.50;53.40
1680;DHT22;838;51.794;12.258;2023-09-19T04:32:38;18.60;53.50
1680;DHT22;838;51.794;12.258;2023-09-19T04:35:06;18.50;53.30
1680;DHT22;838;51.794;12.258;2023-09-19T04:37:38;18.60;51.60
1680;DHT22;838;51.794;12.258;2023-09-19T04:40:07;18.60;52.40
1680;DHT22;838;51.794;12.258;2023-09-19T04:42:38;18.70;50.40
1680;DHT22;838;51.794;12.258;2023-09-19T04:45:04;18.70;50.30
1680;DHT22;838;51.794;12.258;2023-09-19T04:47:30;18.90;47.40
1680;DHT22;838;51.794;12.258;2023-09-19T04:49:56;19.00;48.30
1680;DHT22;838;51.794;12.258;2023-09-19T04:52:24;19.10;44.60
1680;DHT22;838;51.794;12.258;2023-09-19T04:54:50;19.00;46.50
1680;DHT22;838;51.794;12.258;2023-09-19T04:57:16;19.10;45.70
1680;DHT22;838;51.794;12.258;2023-09-19T04:59:42;18.90;45.10
1680;DHT22;838;51.794;12.258;2023-09-19T05:02:07;18.70;47.70
1680;DHT22;838;51.794;12.258;2023-09-19T05:04:37;18.60;48.20
1680;DHT22;838;51.794;12.258;2023-09-19T05:07:06;18.40;47.10
1680;DHT22;838;51.794;12.258;2023-09-19T05:09:32;18.30;48.30
1680;DHT22;838;51.794;12.258;2023-09-19T05:12:00;18.10;48.50
1680;DHT22;838;51.794;12.258;2023-09-19T05:14:26;18.00;48.60
1680;DHT22;838;51.794;12.258;2023-09-19T05:16:51;17.90;48.90
1680;DHT22;838;51.794;12.258;2023-09-19T05:19:17;17.90;48.50
1680;DHT22;838;51.794;12.258;2023-09-19T05:21:43;17.80;48.10
1680;DHT22;838;51.794;12.258;2023-09-19T05:24:12;17.70;48.00
1680;DHT22;838;51.794;12.258;2023-09-19T05:26:40;17.70;47.40
1680;DHT22;838;51.794;12.258;2023-09-19T05:29:05;17.70;48.00
1680;DHT22;838;51.794;12.258;2023-09-19T05:31:33;17.70;47.60
1680;DHT22;838;51.794;12.258;2023-09-19T05:34:01;17.80;47.40
1680;DHT22;838;51.794;12.258;2023-09-19T05:36:27;17.80;46.70
1680;DHT22;838;51.794;12.258;2023-09-19T05:38:55;17.80;47.90
1680;DHT22;838;51.794;12.258;2023-09-19T05:41:21;17.90;46.10
1680;DHT22;838;51.794;12.258;2023-09-19T05:43:49;18.00;44.20
1680;DHT22;838;51.794;12.258;2023-09-19T05:46:16;18.10;42.30
1680;DHT22;838;51.794;12.258;2023-09-19T05:48:42;18.10;42.80
1680;DHT22;838;51.794;12.258;2023-09-19T05:51:09;18.10;40.60
1680;DHT22;838;51.794;12.258;2023-09-19T05:53:35;18.10;38.20
1680;DHT22;838;51.794;12.258;2023-09-19T05:56:01;18.20;37.60
1680;DHT22;838;51.794;12.258;2023-09-19T05:58:27;18.60;35.60
1680;DHT22;838;51.794;12.258;2023-09-19T06:00:56;19.00;30.70
1680;DHT22;838;51.794;12.258;2023-09-19T06:03:23;19.80;25.50
1680;DHT22;838;51.794;12.258;2023-09-19T06:05:49;20.60;15.10
1680;DHT22;838;51.794;12.258;2023-09-19T06:08:17;21.50;6.70
1680;DHT22;838;51.794;12.258;2023-09-19T06:10:43;22.30;1.30
1680;DHT22;838;51.794;12.258;2023-09-19T06:13:09;23.40;1.00
1680;DHT22;838;51.794;12.258;2023-09-19T06:15:36;24.10;1.00
1680;DHT22;838;51.794;12.258;2023-09-19T06:18:02;24.70;1.00
1680;DHT22;838;51.794;12.258;2023-09-19T06:20:30;24.90;1.00
1680;DHT22;838;51.794;12.258;2023-09-19T06:22:59;25.60;1.00
1680;DHT22;838;51.794;12.258;2023-09-19T06:25:27;25.70;1.00
1680;DHT22;838;51.794;12.258;2023-09-19T06:27:53;26.50;1.00
1680;DHT22;838;51.794;12.258;2023-09-19T06:30:23;26.90;1.00
1680;DHT22;838;51.794;12.258;2023-09-19T06:32:49;27.20;1.00
1680;DHT22;838;51.794;12.258;2023-09-19T06:35:22;27.00;1.00
1680;DHT22;838;51.794;12.258;2023-09-19T06:37:49;26.70;1.00
1680;DHT22;838;51.794;12.258;2023-09-19T06:40:16;25.60;1.00
1680;DHT22;838;51.794;12.258;2023-09-19T06:42:46;24.80;1.00
1680;DHT22;838;51.794;12.258;2023-09-19T06:45:13;23.90;1.00
1680;DHT22;838;51.794;12.258;2023-09-19T06:47:53;23.10;1.00
1680;DHT22;838;51.794;12.258;2023-09-19T06:50:26;22.40;1.00
1680;DHT22;838;51.794;12.258;2023-09-19T06:52:53;21.70;1.00
1680;DHT22;838;51.794;12.258;2023-09-19T06:55:21;21.60;1.00
1680;DHT22;838;51.794;12.258;2023-09-19T06:57:50;21.30;1.00
1680;DHT22;838;51.794;12.258;2023-09-19T07:00:20;21.40;1.00
1680;DHT22;838;51.794;12.258;2023-09-19T07:05:22;21.00;1.00
1680;DHT22;838;51.794;12.258;2023-09-19T07:07:47;20.70;1.00
1680;DHT22;838;51.794;12.258;2023-09-19T07:10:13;20.40;1.00
1680;DHT22;838;51.794;12.258;2023-09-19T07:12:39;20.30;1.00
1680;DHT22;838;51.794;12.258;2023-09-19T07:15:07;20.40;1.00
1680;DHT22;838;51.794;12.258;2023-09-19T07:17:33;20.30;1.00
1680;DHT22;838;51.794;12.258;2023-09-19T07:19:58;20.40;1.00
1680;DHT22;838;51.794;12.258;2023-09-19T07:22:28;20.20;1.00
1680;DHT22;838;51.794;12.258;2023-09-19T07:24:53;20.30;1.00
1680;DHT22;838;51.794;12.258;2023-09-19T07:27:20;20.20;1.00
1680;DHT22;838;51.794;12.258;2023-09-19T07:29:45;20.00;1.00
1680;DHT22;838;51.794;12.258;2023-09-19T07:32:11;19.90;1.00
1680;DHT22;838;51.794;12.258;2023-09-19T07:34:37;19.90;1.00
1680;DHT22;838;51.794;12.258;2023-09-19T07:37:06;20.00;1.00
1680;DHT22;838;51.794;12.258;2023-09-19T07:39:32;19.90;1.00
1680;DHT22;838;51.794;12.258;2023-09-19T07:41:57;19.90;1.00
1680;DHT22;838;51.794;12.258;2023-09-19T07:44:23;20.00;1.00
1680;DHT22;838;51.794;12.258;2023-09-19T07:46:53;20.10;1.00
1680;DHT22;838;51.794;12.258;2023-09-19T07:49:20;20.30;1.00
1680;DHT22;838;51.794;12.258;2023-09-19T07:51:46;20.90;1.00
1680;DHT22;838;51.794;12.258;2023-09-19T07:54:14;21.40;1.00
1680;DHT22;838;51.794;12.258;2023-09-19T07:56:43;21.30;1.00
1680;DHT22;838;51.794;12.258;2023-09-19T07:59:14;21.10;1.00
1680;DHT22;838;51.794;12.258;2023-09-19T08:01:43;21.00;1.00
1680;DHT22;838;51.794;12.258;2023-09-19T08:04:09;21.00;1.00
1680;DHT22;838;51.794;12.258;2023-09-19T08:06:35;20.80;1.00
1680;DHT22;838;51.794;12.258;2023-09-19T08:09:03;20.50;1.00
1680;DHT22;838;51.794;12.258;2023-09-19T08:11:33;20.30;1.00
1680;DHT22;838;51.794;12.258;2023-09-19T08:13:59;20.20;1.00
1680;DHT22;838;51.794;12.258;2023-09-19T08:16:26;20.30;1.00
1680;DHT22;838;51.794;12.258;2023-09-19T08:18:52;20.30;1.00
1680;DHT22;838;51.794;12.258;2023-09-19T08:21:21;20.40;1.00
1680;DHT22;838;51.794;12.258;2023-09-19T08:23:53;20.50;1.00
1680;DHT22;838;51.794;12.258;2023-09-19T08:26:22;20.60;1.00
1680;DHT22;838;51.794;12.258;2023-09-19T08:28:49;20.60;1.00
1680;DHT22;838;51.794;12.258;2023-09-19T08:31:17;20.50;1.00
1680;DHT22;838;51.794;12.258;2023-09-19T08:33:43;20.40;1.00
1680;DHT22;838;51.794;12.258;2023-09-19T08:36:14;20.40;1.00
1680;DHT22;838;51.794;12.258;2023-09-19T08:38:40;20.40;1.00
1680;DHT22;838;51.794;12.258;2023-09-19T08:41:07;20.60;1.00
1680;DHT22;838;51.794;12.258;2023-09-19T08:43:35;20.50;1.00
1680;DHT22;838;51.794;12.258;2023-09-19T08:46:11;20.50;1.00
1680;DHT22;838;51.794;12.258;2023-09-19T08:51:27;20.80;1.00
1680;DHT22;838;51.794;12.258;2023-09-19T08:54:06;20.80;1.00
1680;DHT22;838;51.794;12.258;2023-09-19T08:56:34;21.00;1.00
1680;DHT22;838;51.794;12.258;2023-09-19T08:59:06;21.20;1.00
1680;DHT22;838;51.794;12.258;2023-09-19T09:01:35;21.20;1.00
1680;DHT22;838;51.794;12.258;2023-09-19T09:04:02;21.40;1.00
1680;DHT22;838;51.794;12.258;2023-09-19T09:06:30;21.70;1.00
1680;DHT22;838;51.794;12.258;2023-09-19T09:08:58;22.00;1.00
1680;DHT22;838;51.794;12.258;2023-09-19T09:11:25;22.10;1.00
1680;DHT22;838;51.794;12.258;2023-09-19T09:13:53;21.90;1.00
1680;DHT22;838;51.794;12.258;2023-09-19T09:16:19;21.70;1.00
1680;DHT22;838;51.794;12.258;2023-09-19T09:18:45;21.60;1.00
1680;DHT22;838;51.794;12.258;2023-09-19T09:21:12;21.70;1.00
1680;DHT22;838;51.794;12.258;2023-09-19T09:23:40;21.80;1.00
1680;DHT22;838;51.794;12.258;2023-09-19T09:26:06;22.00;1.00
1680;DHT22;838;51.794;12.258;2023-09-19T09:28:34;21.80;1.00
1680;DHT22;838;51.794;12.258;2023-09-19T09:31:01;21.50;1.00
1680;DHT22;838;51.794;12.258;2023-09-19T09:33:38;21.40;1.00
1680;DHT22;838;51.794;12.258;2023-09-19T09:36:17;21.20;1.00
1680;DHT22;838;51.794;12.258;2023-09-19T09:38:56;21.30;1.00
1680;DHT22;838;51.794;12.258;2023-09-19T09:41:36;21.30;1.00
1680;DHT22;838;51.794;12.258;2023-09-19T09:44:13;21.30;1.00
1680;DHT22;838;51.794;12.258;2023-09-19T09:46:53;21.30;1.00
1680;DHT22;838;51.794;12.258;2023-09-19T09:49:24;21.30;1.00
1680;DHT22;838;51.794;12.258;2023-09-19T09:52:01;21.20;1.00
1680;DHT22;838;51.794;12.258;2023-09-19T09:54:31;21.20;1.00
1680;DHT22;838;51.794;12.258;2023-09-19T09:57:16;21.20;1.00
1680;DHT22;838;51.794;12.258;2023-09-19T09:59:53;21.30;1.00
1680;DHT22;838;51.794;12.258;2023-09-19T10:02:21;21.40;1.00
1680;DHT22;838;51.794;12.258;2023-09-19T10:05:13;21.40;1.00
1680;DHT22;838;51.794;12.258;2023-09-19T10:07:46;21.40;1.00
1680;DHT22;838;51.794;12.258;2023-09-19T10:10:39;21.30;1.00
1680;DHT22;838;51.794;12.258;2023-09-19T10:13:12;21.50;1.00
1680;DHT22;838;51.794;12.258;2023-09-19T10:15:39;21.70;1.00
1680;DHT22;838;51.794;12.258;2023-09-19T10:18:10;21.90;1.00
1680;DHT22;838;51.794;12.258;2023-09-19T10:20:46;22.10;1.00
1680;DHT22;838;51.794;12.258;2023-09-19T10:23:15;22.40;1.00
1680;DHT22;838;51.794;12.258;2023-09-19T10:25:47;22.60;1.00
1680;DHT22;838;51.794;12.258;2023-09-19T10:28:15;22.50;1.00
1680;DHT22;838;51.794;12.258;2023-09-19T10:30:43;22.50;1.00
1680;DHT22;838;51.794;12.258;2023-09-19T10:33:24;22.50;1.00
1680;DHT22;838;51.794;12.258;2023-09-19T10:35:59;22.40;1.00
1680;DHT22;838;51.794;12.258;2023-09-19T10:38:37;22.40;1.00
1680;DHT22;838;51.794;12.258;2023-09-19T10:41:07;22.50;1.00
1680;DHT22;838;51.794;12.258;2023-09-19T10:43:38;22.70;1.00
1680;DHT22;838;51.794;12.258;2023-09-19T10:46:08;22.70;1.00
1680;DHT22;838;51.794;12.258;2023-09-19T10:48:38;22.50;1.00
1680;DHT22;838;51.794;12.258;2023-09-19T10:51:18;22.50;1.00
1680;DHT22;838;51.794;12.258;2023-09-19T10:53:56;22.60;1.00
1680;DHT22;838;51.794;12.258;2023-09-19T10:56:34;22.60;1.00
1680;DHT22;838;51.794;12.258;2023-09-19T10:59:12;22.60;1.00
1680;DHT22;838;51.794;12.258;2023-09-19T11:04:32;22.00;1.00
1680;DHT22;838;51.794;12.258;2023-09-19T11:07:09;22.10;1.00
1680;DHT22;838;51.794;12.258;2023-09-19T11:09:55;22.30;1.00
1680;DHT22;838;51.794;12.258;2023-09-19T11:14:57;22.80;1.00
1680;DHT22;838;51.794;12.258;2023-09-19T11:17:34;23.00;1.00
1680;DHT22;838;51.794;12.258;2023-09-19T11:30:38;23.30;1.00
1680;DHT22;838;51.794;12.258;2023-09-19T11:33:21;23.10;1.00
1680;DHT22;838;51.794;12.258;2023-09-19T11:36:13;23.10;1.00
1680;DHT22;838;51.794;12.258;2023-09-19T11:46:24;23.20;1.00
1680;DHT22;838;51.794;12.258;2023-09-19T11:48:51;23.20;1.00
1680;DHT22;838;51.794;12.258;2023-09-19T11:51:22;23.30;1.00
1680;DHT22;838;51.794;12.258;2023-09-19T11:53:51;23.30;1.00
1680;DHT22;838;51.794;12.258;2023-09-19T11:56:19;23.10;1.00
1680;DHT22;838;51.794;12.258;2023-09-19T11:58:48;23.10;1.00
1680;DHT22;838;51.794;12.258;2023-09-19T12:01:21;23.00;1.00
1680;DHT22;838;51.794;12.258;2023-09-19T12:03:50;23.00;1.00
1680;DHT22;838;51.794;12.258;2023-09-19T12:06:18;22.90;1.00
1680;DHT22;838;51.794;12.258;2023-09-19T12:08:44;23.10;1.00
1680;DHT22;838;51.794;12.258;2023-09-19T12:11:16;23.30;1.00
1680;DHT22;838;51.794;12.258;2023-09-19T12:13:44;23.20;1.00
1680;DHT22;838;51.794;12.258;2023-09-19T12:16:17;23.10;1.00
1680;DHT22;838;51.794;12.258;2023-09-19T12:18:49;22.90;1.00
1680;DHT22;838;51.794;12.258;2023-09-19T12:21:29;22.80;1.00
1680;DHT22;838;51.794;12.258;2023-09-19T12:24:07;22.90;1.00
1680;DHT22;838;51.794;12.258;2023-09-19T12:26:40;23.00;1.00
1680;DHT22;838;51.794;12.258;2023-09-19T12:29:17;22.90;1.00
1680;DHT22;838;51.794;12.258;2023-09-19T12:31:48;22.90;1.00
1680;DHT22;838;51.794;12.258;2023-09-19T12:34:24;22.90;1.00
1680;DHT22;838;51.794;12.258;2023-09-19T12:37:09;22.80;1.00
1680;DHT22;838;51.794;12.258;2023-09-19T12:39:44;22.60;1.00
1680;DHT22;838;51.794;12.258;2023-09-19T12:42:22;22.90;1.00
1680;DHT22;838;51.794;12.258;2023-09-19T12:44:53;23.10;1.00
1680;DHT22;838;51.794;12.258;2023-09-19T12:47:23;23.10;1.00
1680;DHT22;838;51.794;12.258;2023-09-19T12:52:44;23.20;1.00
1680;DHT22;838;51.794;12.258;2023-09-19T12:55:27;23.40;1.00
1680;DHT22;838;51.794;12.258;2023-09-19T12:58:22;23.60;1.00
1680;DHT22;838;51.794;12.258;2023-09-19T13:00:47;23.40;1.00
1680;DHT22;838;51.794;12.258;2023-09-19T13:03:27;23.30;1.00
1680;DHT22;838;51.794;12.258;2023-09-19T13:06:03;23.20;1.00
1680;DHT22;838;51.794;12.258;2023-09-19T13:08:30;23.40;1.00
1680;DHT22;838;51.794;12.258;2023-09-19T13:13:46;23.50;1.00
1680;DHT22;838;51.794;12.258;2023-09-19T13:16:20;23.70;1.00
1680;DHT22;838;51.794;12.258;2023-09-19T13:18:53;23.60;1.00
1680;DHT22;838;51.794;12.258;2023-09-19T13:21:33;23.50;1.00
1680;DHT22;838;51.794;12.258;2023-09-19T13:24:22;23.60;1.00
1680;DHT22;838;51.794;12.258;2023-09-19T13:26:54;23.70;1.00
1680;DHT22;838;51.794;12.258;2023-09-19T13:29:20;23.70;1.00
1680;DHT22;838;51.794;12.258;2023-09-19T13:31:50;23.50;1.00
1680;DHT22;838;51.794;12.258;2023-09-19T13:34:16;23.30;1.00
1680;DHT22;838;51.794;12.258;2023-09-19T13:36:43;23.30;1.00
1680;DHT22;838;51.794;12.258;2023-09-19T13:39:09;23.30;1.00
1680;DHT22;838;51.794;12.258;2023-09-19T13:41:36;23.30;1.00
1680;DHT22;838;51.794;12.258;2023-09-19T13:44:05;23.30;1.00
1680;DHT22;838;51.794;12.258;2023-09-19T13:46:32;23.20;1.00
1680;DHT22;838;51.794;12.258;2023-09-19T13:49:02;23.30;1.00
1680;DHT22;838;51.794;12.258;2023-09-19T13:51:32;23.40;1.00
1680;DHT22;838;51.794;12.258;2023-09-19T13:54:01;23.60;1.00
1680;DHT22;838;51.794;12.258;2023-09-19T13:56:26;23.60;1.00
1680;DHT22;838;51.794;12.258;2023-09-19T13:58:56;23.90;1.00
1680;DHT22;838;51.794;12.258;2023-09-19T14:01:24;23.50;1.00
1680;DHT22;838;51.794;12.258;2023-09-19T14:03:55;23.70;1.00
1680;DHT22;838;51.794;12.258;2023-09-19T14:06:23;23.40;1.00
1680;DHT22;838;51.794;12.258;2023-09-19T14:08:49;23.40;1.00
1680;DHT22;838;51.794;12.258;2023-09-19T14:11:15;23.30;1.00
1680;DHT22;838;51.794;12.258;2023-09-19T14:13:43;23.30;1.00
1680;DHT22;838;51.794;12.258;2023-09-19T14:16:15;23.30;1.00
1680;DHT22;838;51.794;12.258;2023-09-19T14:18:41;23.40;1.00
1680;DHT22;838;51.794;12.258;2023-09-19T14:21:07;23.30;1.00
1680;DHT22;838;51.794;12.258;2023-09-19T14:23:37;23.40;1.00
1680;DHT22;838;51.794;12.258;2023-09-19T14:26:04;23.50;1.00
1680;DHT22;838;51.794;12.258;2023-09-19T14:28:33;23.50;1.00
1680;DHT22;838;51.794;12.258;2023-09-19T14:31:05;23.50;1.00
1680;DHT22;838;51.794;12.258;2023-09-19T14:33:31;23.50;1.00
1680;DHT22;838;51.794;12.258;2023-09-19T14:35:57;23.50;1.00
1680;DHT22;838;51.794;12.258;2023-09-19T14:38:23;23.40;1.00
1680;DHT22;838;51.794;12.258;2023-09-19T14:40:48;23.30;1.00
1680;DHT22;838;51.794;12.258;2023-09-19T14:43:16;23.20;1.00
1680;DHT22;838;51.794;12.258;2023-09-19T14:45:41;23.20;1.00
1680;DHT22;838;51.794;12.258;2023-09-19T14:48:07;23.10;1.00
1680;DHT22;838;51.794;12.258;2023-09-19T14:50:33;23.10;1.00
1680;DHT22;838;51.794;12.258;2023-09-19T14:53:05;23.00;1.00
1680;DHT22;838;51.794;12.258;2023-09-19T14:55:37;22.90;1.00
1680;DHT22;838;51.794;12.258;2023-09-19T14:58:06;23.00;1.00
1680;DHT22;838;51.794;12.258;2023-09-19T15:00:33;23.10;1.00
1680;DHT22;838;51.794;12.258;2023-09-19T15:02:59;23.10;1.00
1680;DHT22;838;51.794;12.258;2023-09-19T15:05:25;23.10;1.00
1680;DHT22;838;51.794;12.258;2023-09-19T15:07:52;23.10;1.00
1680;DHT22;838;51.794;12.258;2023-09-19T15:10:21;23.00;1.00
1680;DHT22;838;51.794;12.258;2023-09-19T15:12:50;22.90;1.00
1680;DHT22;838;51.794;12.258;2023-09-19T15:15:19;22.90;1.00
1680;DHT22;838;51.794;12.258;2023-09-19T15:17:49;23.00;1.00
1680;DHT22;838;51.794;12.258;2023-09-19T15:20:25;23.00;1.00
1680;DHT22;838;51.794;12.258;2023-09-19T15:22:51;22.90;1.00
1680;DHT22;838;51.794;12.258;2023-09-19T15:25:20;22.70;1.00
1680;DHT22;838;51.794;12.258;2023-09-19T15:27:46;22.60;1.00
1680;DHT22;838;51.794;12.258;2023-09-19T15:30:15;22.50;1.00
1680;DHT22;838;51.794;12.258;2023-09-19T15:32:41;22.30;1.00
1680;DHT22;838;51.794;12.258;2023-09-19T15:35:08;22.20;1.00
1680;DHT22;838;51.794;12.258;2023-09-19T15:37:37;22.20;1.00
1680;DHT22;838;51.794;12.258;2023-09-19T15:40:12;22.00;1.00
1680;DHT22;838;51.794;12.258;2023-09-19T15:42:41;22.10;1.00
1680;DHT22;838;51.794;12.258;2023-09-19T15:45:11;22.10;1.00
1680;DHT22;838;51.794;12.258;2023-09-19T15:47:37;22.20;1.00
1680;DHT22;838;51.794;12.258;2023-09-19T15:50:03;22.30;1.00
1680;DHT22;838;51.794;12.258;2023-09-19T15:52:29;22.40;1.00
1680;DHT22;838;51.794;12.258;2023-09-19T15:54:55;22.60;1.00
1680;DHT22;838;51.794;12.258;2023-09-19T15:57:21;22.70;1.00
1680;DHT22;838;51.794;12.258;2023-09-19T15:59:46;22.70;1.00
1680;DHT22;838;51.794;12.258;2023-09-19T16:02:12;22.70;1.00
1680;DHT22;838;51.794;12.258;2023-09-19T16:04:38;22.50;1.00
1680;DHT22;838;51.794;12.258;2023-09-19T16:07:04;22.40;1.00
1680;DHT22;838;51.794;12.258;2023-09-19T16:09:30;22.20;1.00
1680;DHT22;838;51.794;12.258;2023-09-19T16:11:55;22.10;1.00
1680;DHT22;838;51.794;12.258;2023-09-19T16:14:21;22.00;1.00
1680;DHT22;838;51.794;12.258;2023-09-19T16:16:47;22.10;1.00
1680;DHT22;838;51.794;12.258;2023-09-19T16:19:12;22.20;1.00
1680;DHT22;838;51.794;12.258;2023-09-19T16:21:38;22.20;1.00
1680;DHT22;838;51.794;12.258;2023-09-19T16:24:06;22.10;1.00
1680;DHT22;838;51.794;12.258;2023-09-19T16:26:32;22.00;1.00
1680;DHT22;838;51.794;12.258;2023-09-19T16:28:58;21.80;1.00
1680;DHT22;838;51.794;12.258;2023-09-19T16:31:28;21.60;1.00
1680;DHT22;838;51.794;12.258;2023-09-19T16:33:54;21.60;1.00
1680;DHT22;838;51.794;12.258;2023-09-19T16:36:22;21.60;1.00
1680;DHT22;838;51.794;12.258;2023-09-19T16:38:48;21.60;1.00
1680;DHT22;838;51.794;12.258;2023-09-19T16:41:16;21.60;1.00
1680;DHT22;838;51.794;12.258;2023-09-19T16:43:42;21.60;1.00
1680;DHT22;838;51.794;12.258;2023-09-19T16:46:10;21.50;1.00
1680;DHT22;838;51.794;12.258;2023-09-19T16:48:40;21.50;1.00
1680;DHT22;838;51.794;12.258;2023-09-19T16:51:09;21.40;1.00
1680;DHT22;838;51.794;12.258;2023-09-19T16:53:36;21.30;1.00
1680;DHT22;838;51.794;12.258;2023-09-19T16:56:04;21.20;1.00
1680;DHT22;838;51.794;12.258;2023-09-19T16:58:32;21.10;1.00
1680;DHT22;838;51.794;12.258;2023-09-19T17:00:59;21.10;1.00
1680;DHT22;838;51.794;12.258;2023-09-19T17:03:25;21.00;1.00
1680;DHT22;838;51.794;12.258;2023-09-19T17:05:51;21.10;1.00
1680;DHT22;838;51.794;12.258;2023-09-19T17:08:18;21.00;1.00
1680;DHT22;838;51.794;12.258;2023-09-19T17:10:43;21.00;1.00
1680;DHT22;838;51.794;12.258;2023-09-19T17:13:10;20.90;1.00
1680;DHT22;838;51.794;12.258;2023-09-19T17:15:39;20.80;1.00
1680;DHT22;838;51.794;12.258;2023-09-19T17:18:05;20.80;1.00